Supercat — 12034QC — position and weather

sailwx.info

Track history (hours):
 
Tides and Currents Weather Stations Pressure Air Temp Water Temp Dewpoint Dewpoint Depression Visibility Wind Speed Wind Dir Waves Ship Positions

Supercat

Last reported at 2018-Jan-30 06:01 UTC. Time now 2018-Feb-21 01:56 UTC.
Position S 27°13' E 153°06'.
Warning: this ship's position is 21 days out of date.

Length 20 m.

Type: Passenger vessel. MMSI: 503017670.

Date/timePositionNaut miles runAvg speedWind from/ knotsBaromVisibWave heightAir tempDewpointWater temp
2018-Jan-30 06:01S 27°13' E 153°06'0 0.0
2018-Jan-30 03:37S 27°13' E 153°06'0 0.0
2018-Jan-30 03:28S 27°13' E 153°06'0 0.0
2018-Jan-30 02:55S 27°13' E 153°06'0 0.0
2018-Jan-30 02:28S 27°13' E 153°06'0 0.0
2018-Jan-30 01:55S 27°13' E 153°06'0 0.0
2018-Jan-30 01:28S 27°13' E 153°06'0 0.0
2018-Jan-30 00:52S 27°13' E 153°06'0 0.0
2018-Jan-30 00:28S 27°13' E 153°06'0 0.0
2018-Jan-29 23:58S 27°13' E 153°06'0 0.0
2018-Jan-29 23:28S 27°13' E 153°06'0 0.0
2018-Jan-29 22:58S 27°13' E 153°06'0 0.0
2018-Jan-29 22:28S 27°13' E 153°06'0 0.0
2018-Jan-29 21:58S 27°13' E 153°06'0 0.0
2018-Jan-29 21:28S 27°13' E 153°06'0 0.0
2018-Jan-29 05:23S 27°13' E 153°06'0 0.0
2018-Jan-29 04:59S 27°13' E 153°06'0 0.0
2018-Jan-29 04:29S 27°13' E 153°06'0 0.0
2018-Jan-29 03:59S 27°13' E 153°06'0 0.0
2018-Jan-29 03:29S 27°13' E 153°06'0 0.0
2018-Jan-29 02:59S 27°13' E 153°06'0 0.0
2018-Jan-29 02:29S 27°13' E 153°06'0 0.0
2018-Jan-29 01:59S 27°13' E 153°06'0 0.0
2018-Jan-29 01:29S 27°13' E 153°06'0 0.0
2018-Jan-29 00:59S 27°13' E 153°06'0 0.0
2018-Jan-29 00:29S 27°13' E 153°06'0 0.0
2018-Jan-28 23:59S 27°13' E 153°06'0 0.0
2018-Jan-28 23:26S 27°13' E 153°06'0 0.0
2018-Jan-28 22:59S 27°13' E 153°06'0 0.0
2018-Jan-28 22:29S 27°13' E 153°06'0 0.0
2018-Jan-27 06:11S 27°13' E 153°06'0 0.0
2018-Jan-27 05:59S 27°13' E 153°06'4 8.0
2018-Jan-27 05:30S 27°11' E 153°09'2 0.3
2018-Jan-26 22:58S 27°12' E 153°11'510.5
2018-Jan-26 22:29S 27°13' E 153°06'0 0.0
2018-Jan-26 21:59S 27°13' E 153°06'0 0.0
2018-Jan-26 21:29S 27°13' E 153°06'0 0.0
2018-Jan-26 07:32S 27°13' E 153°06'0 0.0
2018-Jan-26 07:29S 27°13' E 153°06'1 1.6
2018-Jan-26 07:01S 27°12' E 153°06'6 0.9
2018-Jan-26 00:35S 27°11' E 153°12'216.3
2018-Jan-26 00:29S 27°11' E 153°10'4 8.0
2018-Jan-25 23:59S 27°13' E 153°06'0 0.0
2018-Jan-25 23:29S 27°13' E 153°06'0 0.0
2018-Jan-25 22:59S 27°13' E 153°06'0 0.0
2018-Jan-25 22:29S 27°13' E 153°06'0 0.0
2018-Jan-24 05:56S 27°13' E 153°06'4 9.2
2018-Jan-24 05:30S 27°11' E 153°10'3 0.5
2018-Jan-23 23:15S 27°12' E 153°13'517.2
2018-Jan-23 22:58S 27°11' E 153°07'2 4.5
2018-Jan-23 22:30S 27°13' E 153°06'0 0.0
2018-Jan-23 22:00S 27°13' E 153°06'0 0.0
2018-Jan-23 21:30S 27°13' E 153°06'  
Track history (hours):
 
Tides and Currents Weather Stations Pressure Air Temp Water Temp Dewpoint Dewpoint Depression Visibility Wind Speed Wind Dir Waves Ship Positions

Supercat

Last reported at 2018-Jan-30 06:01 UTC. Time now 2018-Feb-21 01:56 UTC.
Position S 27°13' E 153°06'.
Warning: this ship's position is 21 days out of date.

Length 20 m.

Type: Passenger vessel. MMSI: 503017670.

Date/timePositionNaut miles runAvg speedWind from/ knotsBaromVisibWave heightAir tempDewpointWater temp
2018-Jan-30 06:01S 27°13' E 153°06'0 0.0
2018-Jan-30 03:37S 27°13' E 153°06'0 0.0
2018-Jan-30 03:28S 27°13' E 153°06'0 0.0
2018-Jan-30 02:55S 27°13' E 153°06'0 0.0
2018-Jan-30 02:28S 27°13' E 153°06'0 0.0
2018-Jan-30 01:55S 27°13' E 153°06'0 0.0
2018-Jan-30 01:28S 27°13' E 153°06'0 0.0
2018-Jan-30 00:52S 27°13' E 153°06'0 0.0
2018-Jan-30 00:28S 27°13' E 153°06'0 0.0
2018-Jan-29 23:58S 27°13' E 153°06'0 0.0
2018-Jan-29 23:28S 27°13' E 153°06'0 0.0
2018-Jan-29 22:58S 27°13' E 153°06'0 0.0
2018-Jan-29 22:28S 27°13' E 153°06'0 0.0
2018-Jan-29 21:58S 27°13' E 153°06'0 0.0
2018-Jan-29 21:28S 27°13' E 153°06'0 0.0
2018-Jan-29 05:23S 27°13' E 153°06'0 0.0
2018-Jan-29 04:59S 27°13' E 153°06'0 0.0
2018-Jan-29 04:29S 27°13' E 153°06'0 0.0
2018-Jan-29 03:59S 27°13' E 153°06'0 0.0
2018-Jan-29 03:29S 27°13' E 153°06'0 0.0
2018-Jan-29 02:59S 27°13' E 153°06'0 0.0
2018-Jan-29 02:29S 27°13' E 153°06'0 0.0
2018-Jan-29 01:59S 27°13' E 153°06'0 0.0
2018-Jan-29 01:29S 27°13' E 153°06'0 0.0
2018-Jan-29 00:59S 27°13' E 153°06'0 0.0
2018-Jan-29 00:29S 27°13' E 153°06'0 0.0
2018-Jan-28 23:59S 27°13' E 153°06'0 0.0
2018-Jan-28 23:26S 27°13' E 153°06'0 0.0
2018-Jan-28 22:59S 27°13' E 153°06'0 0.0
2018-Jan-28 22:29S 27°13' E 153°06'0 0.0
2018-Jan-27 06:11S 27°13' E 153°06'0 0.0
2018-Jan-27 05:59S 27°13' E 153°06'4 8.0
2018-Jan-27 05:30S 27°11' E 153°09'2 0.3
2018-Jan-26 22:58S 27°12' E 153°11'510.5
2018-Jan-26 22:29S 27°13' E 153°06'0 0.0
2018-Jan-26 21:59S 27°13' E 153°06'0 0.0
2018-Jan-26 21:29S 27°13' E 153°06'0 0.0
2018-Jan-26 07:32S 27°13' E 153°06'0 0.0
2018-Jan-26 07:29S 27°13' E 153°06'1 1.6
2018-Jan-26 07:01S 27°12' E 153°06'6 0.9
2018-Jan-26 00:35S 27°11' E 153°12'216.3
2018-Jan-26 00:29S 27°11' E 153°10'4 8.0
2018-Jan-25 23:59S 27°13' E 153°06'0 0.0
2018-Jan-25 23:29S 27°13' E 153°06'0 0.0
2018-Jan-25 22:59S 27°13' E 153°06'0 0.0
2018-Jan-25 22:29S 27°13' E 153°06'0 0.0
2018-Jan-24 05:56S 27°13' E 153°06'4 9.2
2018-Jan-24 05:30S 27°11' E 153°10'3 0.5
2018-Jan-23 23:15S 27°12' E 153°13'517.2
2018-Jan-23 22:58S 27°11' E 153°07'2 4.5
2018-Jan-23 22:30S 27°13' E 153°06'0 0.0
2018-Jan-23 22:00S 27°13' E 153°06'0 0.0
2018-Jan-23 21:30S 27°13' E 153°06'  

Dump ship's entire track history